createdAt,value
2018-06-12T00:02:11.885Z,20.40
2018-06-12T00:04:41.043Z,20.40
2018-06-12T00:07:10.241Z,20.60
2018-06-12T00:09:39.394Z,20.50
2018-06-12T00:12:08.533Z,20.50
2018-06-12T00:14:37.698Z,20.40
2018-06-12T00:17:06.805Z,20.30
2018-06-12T00:19:35.952Z,20.40
2018-06-12T00:22:05.092Z,20.40
2018-06-12T00:24:34.293Z,20.30
2018-06-12T00:27:03.470Z,20.40
2018-06-12T00:29:32.600Z,20.50
2018-06-12T00:32:01.747Z,20.50
2018-06-12T00:34:30.874Z,20.50
2018-06-12T00:37:00.157Z,20.60
2018-06-12T00:39:29.460Z,20.60
2018-06-12T00:41:58.735Z,20.60
2018-06-12T00:44:27.852Z,20.60
2018-06-12T00:46:56.977Z,20.60
2018-06-12T00:49:26.134Z,20.60
2018-06-12T00:51:55.307Z,20.60
2018-06-12T00:54:24.665Z,20.60
2018-06-12T00:57:08.948Z,20.70
2018-06-12T00:59:38.161Z,20.60
2018-06-12T01:02:07.244Z,20.60
2018-06-12T01:04:36.586Z,20.70
2018-06-12T01:07:05.814Z,20.70
2018-06-12T01:09:34.908Z,20.70
2018-06-12T01:12:04.417Z,20.70
2018-06-12T01:14:33.743Z,20.80
2018-06-12T01:17:02.963Z,20.80
2018-06-12T01:19:32.160Z,20.70
2018-06-12T01:22:01.394Z,20.70
2018-06-12T01:24:30.591Z,20.60
2018-06-12T01:26:59.702Z,20.60
2018-06-12T01:29:28.902Z,20.60
2018-06-12T01:31:58.070Z,20.60
2018-06-12T01:34:27.301Z,20.60
2018-06-12T01:36:56.481Z,20.60
2018-06-12T01:39:25.657Z,20.60
2018-06-12T01:41:54.769Z,20.60
2018-06-12T01:44:23.928Z,20.70
2018-06-12T01:46:53.060Z,20.70
2018-06-12T01:49:22.179Z,20.80
2018-06-12T01:51:51.345Z,20.90
2018-06-12T01:54:20.461Z,20.90
2018-06-12T01:56:49.568Z,20.80
2018-06-12T01:59:18.712Z,20.80
2018-06-12T02:01:47.829Z,20.70
2018-06-12T02:04:16.950Z,20.80
2018-06-12T02:06:46.121Z,20.70
2018-06-12T02:09:15.252Z,20.70
2018-06-12T02:11:44.489Z,20.80
2018-06-12T02:14:13.608Z,20.90
2018-06-12T02:16:42.747Z,20.90
2018-06-12T02:19:11.870Z,20.90
2018-06-12T02:21:40.990Z,20.70
2018-06-12T02:24:10.097Z,20.80
2018-06-12T02:29:07.921Z,20.70
2018-06-12T02:31:43.366Z,20.70
2018-06-12T02:34:12.466Z,20.70
2018-06-12T02:36:41.580Z,20.70
2018-06-12T02:39:10.799Z,20.60
2018-06-12T02:41:39.896Z,20.60
2018-06-12T02:44:09.041Z,20.70
2018-06-12T02:46:38.168Z,20.70
2018-06-12T02:49:07.312Z,20.70
2018-06-12T02:51:37.554Z,20.70
2018-06-12T02:54:06.707Z,20.80
2018-06-12T02:56:35.862Z,20.70
2018-06-12T02:59:04.996Z,20.70
2018-06-12T03:01:34.105Z,20.70
2018-06-12T03:04:03.230Z,20.70
2018-06-12T03:06:32.363Z,20.60
2018-06-12T03:09:01.510Z,20.50
2018-06-12T03:11:30.725Z,20.50
2018-06-12T03:13:59.829Z,20.40
2018-06-12T03:16:29.029Z,20.50
2018-06-12T03:18:58.167Z,20.40
2018-06-12T03:21:27.347Z,20.50
2018-06-12T03:23:56.449Z,20.50
2018-06-12T03:26:25.558Z,20.60
2018-06-12T03:31:23.361Z,20.60
2018-06-12T03:33:52.549Z,20.60
2018-06-12T03:36:21.700Z,20.60
2018-06-12T03:38:50.836Z,20.60
2018-06-12T03:41:19.977Z,20.60
2018-06-12T03:43:49.079Z,20.10
2018-06-12T03:46:18.379Z,20.30
2018-06-12T03:48:54.041Z,20.40
2018-06-12T03:51:23.163Z,20.60
2018-06-12T03:53:52.282Z,20.60
2018-06-12T03:56:21.417Z,20.60
2018-06-12T03:58:50.563Z,20.70
2018-06-12T04:01:19.740Z,20.60
2018-06-12T04:03:48.936Z,20.50
2018-06-12T04:06:18.078Z,20.60
2018-06-12T04:08:47.230Z,20.40
2018-06-12T04:11:16.365Z,20.50
2018-06-12T04:13:45.516Z,20.60
2018-06-12T04:16:14.664Z,20.60
2018-06-12T04:18:43.986Z,20.50
2018-06-12T04:21:13.230Z,20.50
2018-06-12T04:23:42.371Z,20.60
2018-06-12T04:26:11.753Z,20.60
2018-06-12T04:28:40.875Z,20.70
2018-06-12T04:31:10.027Z,20.70
2018-06-12T04:33:39.199Z,20.60
2018-06-12T04:36:08.407Z,20.60
2018-06-12T04:38:37.679Z,20.60
2018-06-12T04:41:07.347Z,20.70
2018-06-12T04:43:37.030Z,20.70
2018-06-12T04:46:06.225Z,20.60
2018-06-12T04:48:35.412Z,20.60
2018-06-12T04:51:04.566Z,20.40
2018-06-12T04:53:33.853Z,20.40
2018-06-12T04:56:02.969Z,20.60
2018-06-12T04:58:32.165Z,20.60
2018-06-12T05:01:01.286Z,20.60
2018-06-12T05:03:30.508Z,20.80
2018-06-12T05:05:59.632Z,20.70
2018-06-12T05:10:57.565Z,20.80
2018-06-12T05:13:26.707Z,20.90
2018-06-12T05:15:55.821Z,21.00
2018-06-12T05:18:24.952Z,21.00
2018-06-12T05:20:54.095Z,21.10
2018-06-12T05:23:23.263Z,21.00
2018-06-12T05:25:52.429Z,21.00
2018-06-12T05:28:21.566Z,21.10
2018-06-12T05:30:50.692Z,21.10
2018-06-12T05:33:19.801Z,21.30
2018-06-12T05:35:48.990Z,21.30
2018-06-12T05:38:18.120Z,21.30
2018-06-12T05:40:47.302Z,21.20
2018-06-12T05:43:16.463Z,21.20
2018-06-12T05:45:45.593Z,21.20
2018-06-12T05:48:14.750Z,21.30
2018-06-12T05:50:44.903Z,21.30
2018-06-12T05:53:14.008Z,21.30
2018-06-12T05:55:43.243Z,21.30
2018-06-12T05:58:12.308Z,21.40
2018-06-12T06:00:41.556Z,21.50
2018-06-12T06:03:10.707Z,21.40
2018-06-12T06:05:39.890Z,21.40
2018-06-12T06:08:09.000Z,21.50
2018-06-12T06:10:38.273Z,21.60
2018-06-12T06:13:07.438Z,21.70
2018-06-12T06:15:36.842Z,21.60
2018-06-12T06:18:06.048Z,21.90
2018-06-12T06:20:35.289Z,22.20
2018-06-12T06:23:04.546Z,22.20
2018-06-12T06:28:02.707Z,22.20
2018-06-12T06:30:31.861Z,22.20
2018-06-12T06:33:02.832Z,22.00
2018-06-12T06:35:33.613Z,21.90
2018-06-12T06:38:02.765Z,21.90
2018-06-12T06:40:32.070Z,21.90
2018-06-12T06:43:01.474Z,21.90
2018-06-12T06:45:30.563Z,21.90
2018-06-12T06:47:59.789Z,22.10
2018-06-12T06:50:28.987Z,22.00
2018-06-12T06:52:58.146Z,21.90
2018-06-12T06:55:27.280Z,21.80
2018-06-12T06:57:56.517Z,21.80
2018-06-12T07:00:25.779Z,21.90
2018-06-12T07:02:55.257Z,22.00
2018-06-12T07:05:25.174Z,22.00
2018-06-12T07:07:54.325Z,22.10
2018-06-12T07:10:23.550Z,22.00
2018-06-12T07:12:53.302Z,22.10
2018-06-12T07:15:22.457Z,22.10
2018-06-12T07:17:51.586Z,22.10
2018-06-12T07:20:30.818Z,22.10
2018-06-12T07:22:59.939Z,22.10
2018-06-12T07:25:29.075Z,22.00
2018-06-12T07:27:58.217Z,22.00
2018-06-12T07:30:27.374Z,22.20
2018-06-12T07:32:56.541Z,22.20
2018-06-12T07:35:25.810Z,22.10
2018-06-12T07:37:55.026Z,22.10
2018-06-12T07:40:24.162Z,22.00
2018-06-12T07:42:53.341Z,22.30
2018-06-12T07:45:22.489Z,22.60
2018-06-12T07:47:51.651Z,22.80
2018-06-12T07:50:20.853Z,23.20
2018-06-12T07:52:50.015Z,23.20
2018-06-12T07:55:19.190Z,23.00
2018-06-12T07:57:48.365Z,22.80
2018-06-12T08:00:17.619Z,22.60
2018-06-12T08:02:46.746Z,22.50
2018-06-12T08:05:15.853Z,22.50
2018-06-12T08:07:44.978Z,22.50
2018-06-12T08:10:14.157Z,22.40
2018-06-12T08:12:43.663Z,22.30
2018-06-12T08:15:12.789Z,22.20
2018-06-12T08:17:41.947Z,22.10
2018-06-12T08:20:11.084Z,22.10
2018-06-12T08:22:40.241Z,22.00
2018-06-12T08:25:09.445Z,22.10
2018-06-12T08:27:38.597Z,22.10
2018-06-12T08:30:07.798Z,22.10
2018-06-12T08:32:36.886Z,22.20
2018-06-12T08:37:34.857Z,22.30
2018-06-12T08:40:04.213Z,22.30
2018-06-12T08:42:33.358Z,22.40
2018-06-12T08:45:02.469Z,22.40
2018-06-12T08:47:31.618Z,22.40
2018-06-12T08:50:00.838Z,22.30
2018-06-12T08:52:29.951Z,22.20
2018-06-12T08:54:59.098Z,22.00
2018-06-12T08:57:28.268Z,22.00
2018-06-12T08:59:57.414Z,22.00
2018-06-12T09:02:26.542Z,22.10
2018-06-12T09:04:55.685Z,22.20
2018-06-12T09:07:24.794Z,22.30
2018-06-12T09:09:54.022Z,22.40
2018-06-12T09:12:23.188Z,22.70
2018-06-12T09:14:52.600Z,22.70
2018-06-12T09:17:21.937Z,22.90
2018-06-12T09:19:51.120Z,23.10
2018-06-12T09:22:20.294Z,23.20
2018-06-12T09:24:49.409Z,23.10
2018-06-12T09:27:18.542Z,23.10
2018-06-12T09:29:47.889Z,23.10
2018-06-12T09:32:16.989Z,23.20
2018-06-12T09:34:46.196Z,23.30
2018-06-12T09:37:15.385Z,23.40
2018-06-12T09:39:44.566Z,23.30
2018-06-12T09:42:13.767Z,23.60
2018-06-12T09:44:42.852Z,23.90
2018-06-12T09:47:12.067Z,23.90
2018-06-12T09:49:41.340Z,23.70
2018-06-12T09:52:10.463Z,23.60
2018-06-12T09:54:39.648Z,23.40
2018-06-12T09:57:08.839Z,23.40
2018-06-12T09:59:38.108Z,23.60
2018-06-12T10:02:07.258Z,23.80
2018-06-12T10:04:36.407Z,23.90
2018-06-12T10:07:05.565Z,24.00
2018-06-12T10:09:34.657Z,23.80
2018-06-12T10:12:03.836Z,24.20
2018-06-12T10:14:33.006Z,24.50
2018-06-12T10:17:02.235Z,25.00
2018-06-12T10:19:31.497Z,25.20
2018-06-12T10:22:00.656Z,24.80
2018-06-12T10:24:29.816Z,25.00
2018-06-12T10:26:59.006Z,24.80
2018-06-12T10:29:28.236Z,24.70
2018-06-12T10:31:57.389Z,24.80
2018-06-12T10:34:26.510Z,24.80
2018-06-12T10:36:55.628Z,24.70
2018-06-12T10:39:24.785Z,24.90
2018-06-12T10:41:53.902Z,24.90
2018-06-12T10:44:23.090Z,25.30
2018-06-12T10:46:52.206Z,25.50
2018-06-12T10:49:21.366Z,25.50
2018-06-12T10:51:50.557Z,25.50
2018-06-12T10:54:19.718Z,25.40
2018-06-12T10:56:48.953Z,25.50
2018-06-12T10:59:18.091Z,25.50
2018-06-12T11:01:47.252Z,25.30
2018-06-12T11:04:16.403Z,25.20
2018-06-12T11:06:45.584Z,24.70
2018-06-12T11:09:14.673Z,24.60
2018-06-12T11:11:43.825Z,24.50
2018-06-12T11:14:13.012Z,24.40
2018-06-12T11:16:42.141Z,24.20
2018-06-12T11:19:11.269Z,23.90
2018-06-12T11:21:40.383Z,23.50
2018-06-12T11:24:09.525Z,23.20
2018-06-12T11:26:38.679Z,22.80
2018-06-12T11:29:07.765Z,22.60
2018-06-12T11:31:36.891Z,22.50
2018-06-12T11:36:34.710Z,22.30
2018-06-12T11:39:05.394Z,22.00
2018-06-12T11:44:03.643Z,21.70
2018-06-12T11:46:32.875Z,21.40
2018-06-12T11:49:02.336Z,21.20
2018-06-12T11:51:31.533Z,21.10
2018-06-12T11:54:00.679Z,21.10
2018-06-12T11:56:29.833Z,21.00
2018-06-12T11:58:59.090Z,21.10
2018-06-12T12:01:28.296Z,21.10
2018-06-12T12:03:57.424Z,20.90
2018-06-12T12:06:26.601Z,20.80
2018-06-12T12:08:55.763Z,20.70
2018-06-12T12:11:24.937Z,20.70
2018-06-12T12:13:54.101Z,20.60
2018-06-12T12:16:23.219Z,20.50
2018-06-12T12:18:52.351Z,20.50
2018-06-12T12:21:21.527Z,20.50
2018-06-12T12:23:50.678Z,20.50
2018-06-12T12:26:19.885Z,20.40
2018-06-12T12:28:49.132Z,20.30
2018-06-12T12:31:18.360Z,20.20
2018-06-12T12:33:47.528Z,20.20
2018-06-12T12:36:16.747Z,20.10
2018-06-12T12:38:45.877Z,20.10
2018-06-12T12:41:15.021Z,20.20
2018-06-12T12:43:44.215Z,20.30
2018-06-12T12:46:13.460Z,20.40
2018-06-12T12:48:42.581Z,20.40
2018-06-12T12:51:11.698Z,20.40
2018-06-12T12:53:40.861Z,20.40
2018-06-12T12:56:09.999Z,20.40
2018-06-12T12:58:39.145Z,20.40
2018-06-12T13:01:08.502Z,20.30
2018-06-12T13:03:37.703Z,20.20
2018-06-12T13:06:06.836Z,20.20
2018-06-12T13:08:36.042Z,20.20
2018-06-12T13:11:05.189Z,20.30
2018-06-12T13:13:34.333Z,20.20
2018-06-12T13:16:03.474Z,20.30
2018-06-12T13:18:32.656Z,20.30
2018-06-12T13:21:01.856Z,20.40
2018-06-12T13:23:31.006Z,20.40
2018-06-12T13:26:00.156Z,20.40
2018-06-12T13:28:29.313Z,20.40
2018-06-12T13:30:58.464Z,20.50
2018-06-12T13:33:27.660Z,20.70
2018-06-12T13:35:56.781Z,20.70
2018-06-12T13:38:25.978Z,20.80
2018-06-12T13:40:55.073Z,20.90
2018-06-12T13:43:24.193Z,21.00
2018-06-12T13:45:53.414Z,20.80
2018-06-12T13:48:22.555Z,20.80
2018-06-12T13:50:51.709Z,20.90
2018-06-12T13:53:20.842Z,20.90
2018-06-12T13:55:50.007Z,21.10
2018-06-12T13:58:19.219Z,21.00
2018-06-12T14:00:48.337Z,21.10
2018-06-12T14:03:17.534Z,21.00
2018-06-12T14:08:15.556Z,21.00
2018-06-12T14:10:44.732Z,21.00
2018-06-12T14:13:14.049Z,20.90
2018-06-12T14:15:43.214Z,20.90
2018-06-12T14:18:12.434Z,20.80
2018-06-12T14:20:41.616Z,20.70
2018-06-12T14:23:10.742Z,20.60
2018-06-12T14:25:39.991Z,20.60
2018-06-12T14:28:09.127Z,20.50
2018-06-12T14:30:38.232Z,20.40
2018-06-12T14:33:07.393Z,20.40
2018-06-12T14:35:36.625Z,20.40
2018-06-12T14:38:05.781Z,20.40
2018-06-12T14:40:35.042Z,20.40
2018-06-12T14:43:04.183Z,20.40
2018-06-12T14:45:33.329Z,20.50
2018-06-12T14:48:02.513Z,20.50
2018-06-12T14:50:31.982Z,20.60
2018-06-12T14:53:01.241Z,20.80
2018-06-12T14:55:30.438Z,20.80
2018-06-12T14:57:59.593Z,20.90
2018-06-12T15:00:28.814Z,20.90
2018-06-12T15:02:58.042Z,20.90
2018-06-12T15:05:27.256Z,21.00
2018-06-12T15:07:56.471Z,21.10
2018-06-12T15:10:25.553Z,21.00
2018-06-12T15:12:54.771Z,21.10
2018-06-12T15:15:23.941Z,21.20
2018-06-12T15:17:53.166Z,21.30
2018-06-12T15:20:22.376Z,21.40
2018-06-12T15:22:51.542Z,21.50
2018-06-12T15:25:20.720Z,21.50
2018-06-12T15:27:49.885Z,21.50
2018-06-12T15:30:19.040Z,21.50
2018-06-12T15:32:48.229Z,21.40
2018-06-12T15:35:17.397Z,21.40
2018-06-12T15:37:46.552Z,21.30
2018-06-12T15:40:15.847Z,21.30
2018-06-12T15:42:45.031Z,21.20
2018-06-12T15:45:14.232Z,21.30
2018-06-12T15:47:43.425Z,21.30
2018-06-12T15:50:12.619Z,21.20
2018-06-12T15:52:41.802Z,21.30
2018-06-12T15:55:11.022Z,21.20
2018-06-12T15:57:40.223Z,21.30
2018-06-12T16:00:09.451Z,21.30
2018-06-12T16:05:07.393Z,21.40
2018-06-12T16:07:36.594Z,21.30
2018-06-12T16:10:05.801Z,21.20
2018-06-12T16:12:34.990Z,21.30
2018-06-12T16:15:04.364Z,21.30
2018-06-12T16:17:33.561Z,21.40
2018-06-12T16:20:02.913Z,21.40
2018-06-12T16:22:32.225Z,21.50
2018-06-12T16:25:01.600Z,21.50
2018-06-12T16:27:30.990Z,21.50
2018-06-12T16:30:00.376Z,21.50
2018-06-12T16:32:29.718Z,21.60
2018-06-12T16:34:59.088Z,21.60
2018-06-12T16:37:28.286Z,21.60
2018-06-12T16:39:57.641Z,21.70
2018-06-12T16:42:26.979Z,21.60
2018-06-12T16:44:56.236Z,21.60
2018-06-12T16:47:25.597Z,21.50
2018-06-12T16:49:55.033Z,21.40
2018-06-12T16:52:25.450Z,21.30
2018-06-12T16:54:54.820Z,21.30
2018-06-12T16:57:24.261Z,21.20
2018-06-12T16:59:53.575Z,21.20
2018-06-12T17:04:51.902Z,21.30
2018-06-12T17:07:21.254Z,21.20
2018-06-12T17:09:50.428Z,21.10
2018-06-12T17:12:19.732Z,21.10
2018-06-12T17:14:48.992Z,21.10
2018-06-12T17:17:18.151Z,21.00
2018-06-12T17:19:47.367Z,21.00
2018-06-12T17:22:16.559Z,21.00
2018-06-12T17:24:45.716Z,21.00
2018-06-12T17:27:14.886Z,20.90
2018-06-12T17:29:44.173Z,21.00
2018-06-12T17:32:13.293Z,21.10
2018-06-12T17:34:42.530Z,21.00
2018-06-12T17:39:40.406Z,21.10
2018-06-12T17:42:09.658Z,21.10
2018-06-12T17:44:38.750Z,21.10
2018-06-12T17:47:08.008Z,21.00
2018-06-12T17:49:37.241Z,20.90
2018-06-12T17:52:06.441Z,21.00
2018-06-12T17:54:35.581Z,21.00
2018-06-12T17:57:04.765Z,20.90
2018-06-12T17:59:33.977Z,20.40
2018-06-12T18:02:03.179Z,20.00
2018-06-12T18:04:32.353Z,19.70
2018-06-12T18:07:01.545Z,19.50
2018-06-12T18:09:30.743Z,19.50
2018-06-12T18:11:59.875Z,19.40
2018-06-12T18:14:29.267Z,19.30
2018-06-12T18:16:58.400Z,19.30
2018-06-12T18:19:27.624Z,19.30
2018-06-12T18:21:56.835Z,19.30
2018-06-12T18:24:26.062Z,19.30
2018-06-12T18:26:55.177Z,19.30
2018-06-12T18:29:24.333Z,19.20
2018-06-12T18:31:53.553Z,19.20
2018-06-12T18:34:22.773Z,19.10
2018-06-12T18:36:51.990Z,19.20
2018-06-12T18:39:21.575Z,19.20
2018-06-12T18:41:51.653Z,19.20
2018-06-12T18:44:21.002Z,19.00
2018-06-12T18:46:50.160Z,18.90
2018-06-12T18:49:19.362Z,18.90
2018-06-12T18:51:48.558Z,18.80
2018-06-12T18:54:17.727Z,18.80
2018-06-12T18:56:46.858Z,18.80
2018-06-12T18:59:16.025Z,18.70
2018-06-12T19:01:45.222Z,18.70
2018-06-12T19:04:14.470Z,18.80
2018-06-12T19:06:43.772Z,18.80
2018-06-12T19:09:12.844Z,18.90
2018-06-12T19:11:42.070Z,18.80
2018-06-12T19:14:11.255Z,18.80
2018-06-12T19:16:40.424Z,18.80
2018-06-12T19:19:09.626Z,18.70
2018-06-12T19:21:38.973Z,18.80
2018-06-12T19:24:08.113Z,18.80
2018-06-12T19:26:37.338Z,18.80
2018-06-12T19:29:06.624Z,18.80
2018-06-12T19:31:35.946Z,18.80
2018-06-12T19:34:05.326Z,18.90
2018-06-12T19:36:34.473Z,18.80
2018-06-12T19:39:04.091Z,18.90
2018-06-12T19:41:33.312Z,18.80
2018-06-12T19:44:02.566Z,18.80
2018-06-12T19:46:32.319Z,18.80
2018-06-12T19:49:01.521Z,18.70
2018-06-12T19:51:30.722Z,18.70
2018-06-12T19:53:59.940Z,18.80
2018-06-12T19:56:29.112Z,18.70
2018-06-12T19:58:58.276Z,18.70
2018-06-12T20:03:56.277Z,18.70
2018-06-12T20:06:25.572Z,18.70
2018-06-12T20:08:55.116Z,18.80
2018-06-12T20:11:31.415Z,18.70
2018-06-12T20:14:00.602Z,18.70
2018-06-12T20:16:29.810Z,18.70
2018-06-12T20:18:59.273Z,18.70
2018-06-12T20:21:28.906Z,18.70
2018-06-12T20:23:59.055Z,18.70
2018-06-12T20:26:28.348Z,18.70
2018-06-12T20:28:57.567Z,18.70
2018-06-12T20:31:26.790Z,18.60
2018-06-12T20:33:56.288Z,18.60
2018-06-12T20:36:25.643Z,18.60
2018-06-12T20:38:54.949Z,18.50
2018-06-12T20:41:24.248Z,18.60
2018-06-12T20:43:53.553Z,18.60
2018-06-12T20:46:22.887Z,18.60
2018-06-12T20:48:52.244Z,18.50
2018-06-12T20:51:21.595Z,18.50
2018-06-12T20:53:50.983Z,18.40
2018-06-12T20:56:20.347Z,18.20
2018-06-12T20:58:50.025Z,18.30
2018-06-12T21:01:19.875Z,18.30
2018-06-12T21:03:49.263Z,18.20
2018-06-12T21:06:18.521Z,18.20
2018-06-12T21:08:47.718Z,18.20
2018-06-12T21:11:17.764Z,18.20
2018-06-12T21:13:47.040Z,18.20
2018-06-12T21:16:16.974Z,18.20
2018-06-12T21:18:46.338Z,18.20
2018-06-12T21:21:15.643Z,18.10
2018-06-12T21:23:44.803Z,18.10
2018-06-12T21:26:14.089Z,18.00
2018-06-12T21:28:43.292Z,18.00
2018-06-12T21:31:12.493Z,18.00
2018-06-12T21:33:41.686Z,17.90
2018-06-12T21:36:10.856Z,17.90
2018-06-12T21:38:40.049Z,17.90
2018-06-12T21:41:09.196Z,17.90
2018-06-12T21:43:38.385Z,18.00
2018-06-12T21:46:07.580Z,18.00
2018-06-12T21:48:36.718Z,18.10
2018-06-12T21:51:05.862Z,18.20
2018-06-12T21:53:35.682Z,18.20
2018-06-12T21:56:04.984Z,18.30
2018-06-12T21:58:34.212Z,18.20
2018-06-12T22:01:03.403Z,18.10
2018-06-12T22:03:32.693Z,18.10
2018-06-12T22:06:03.645Z,18.00
2018-06-12T22:08:32.763Z,18.00
2018-06-12T22:11:02.123Z,18.00
2018-06-12T22:13:31.317Z,18.10
2018-06-12T22:16:00.725Z,18.00
2018-06-12T22:18:29.838Z,18.00
2018-06-12T22:23:28.097Z,18.00
2018-06-12T22:25:58.380Z,18.00
2018-06-12T22:28:28.031Z,18.10
2018-06-12T22:30:57.337Z,18.00
2018-06-12T22:33:26.709Z,18.00
2018-06-12T22:35:55.930Z,18.10
2018-06-12T22:38:27.656Z,18.10
2018-06-12T22:40:56.950Z,18.10
2018-06-12T22:43:26.170Z,18.20
2018-06-12T22:45:55.522Z,18.10
2018-06-12T22:48:24.717Z,18.10
2018-06-12T22:50:54.022Z,18.00
2018-06-12T22:53:23.277Z,18.00
2018-06-12T22:55:52.399Z,18.10
2018-06-12T22:58:21.596Z,18.00
2018-06-12T23:00:50.805Z,18.00
2018-06-12T23:03:20.064Z,18.00
2018-06-12T23:05:49.277Z,17.90
2018-06-12T23:08:18.463Z,17.80
2018-06-12T23:10:47.701Z,17.70
2018-06-12T23:13:17.914Z,17.60
2018-06-12T23:15:48.761Z,17.70
2018-06-12T23:18:18.710Z,17.70
2018-06-12T23:20:59.165Z,17.70
2018-06-12T23:23:28.698Z,17.70
2018-06-12T23:25:58.069Z,17.70
2018-06-12T23:28:27.244Z,17.70
2018-06-12T23:30:56.514Z,17.70
2018-06-12T23:33:26.669Z,17.70
2018-06-12T23:35:55.880Z,17.70
2018-06-12T23:38:25.046Z,17.80
2018-06-12T23:40:54.220Z,17.80
2018-06-12T23:43:23.325Z,17.80
2018-06-12T23:45:52.479Z,17.70
2018-06-12T23:48:21.597Z,17.70
2018-06-12T23:50:50.748Z,17.70
2018-06-12T23:53:19.930Z,17.70
2018-06-12T23:55:49.170Z,17.70
2018-06-12T23:58:18.285Z,17.70
